sensor_id;sensor_type;location;lat;lon;timestamp;pressure;altitude;pressure_sealevel;temperature;humidity
8585;BME280;7180;52.742;11.420;2023-07-16T00:01:01;100079.84;;;22.21;88.45
8585;BME280;7180;52.742;11.420;2023-07-16T00:03:26;100113.00;;;22.20;89.14
8585;BME280;7180;52.742;11.420;2023-07-16T00:05:52;100123.06;;;22.10;89.87
8585;BME280;7180;52.742;11.420;2023-07-16T00:08:17;100117.50;;;22.20;89.20
8585;BME280;7180;52.742;11.420;2023-07-16T00:10:42;100125.38;;;22.21;88.91
8585;BME280;7180;52.742;11.420;2023-07-16T00:13:08;100131.88;;;22.19;88.98
8585;BME280;7180;52.742;11.420;2023-07-16T00:15:33;100155.38;;;22.17;89.38
8585;BME280;7180;52.742;11.420;2023-07-16T00:17:59;100171.75;;;22.14;89.75
8585;BME280;7180;52.742;11.420;2023-07-16T00:20:24;100184.16;;;22.07;90.12
8585;BME280;7180;52.742;11.420;2023-07-16T00:22:50;100234.22;;;21.90;91.49
8585;BME280;7180;52.742;11.420;2023-07-16T00:25:15;100259.03;;;21.84;92.28
8585;BME280;7180;52.742;11.420;2023-07-16T00:27:41;100277.72;;;21.76;93.28
8585;BME280;7180;52.742;11.420;2023-07-16T00:30:07;100293.44;;;21.71;94.18
8585;BME280;7180;52.742;11.420;2023-07-16T00:32:33;100291.25;;;21.66;93.99
8585;BME280;7180;52.742;11.420;2023-07-16T00:34:58;100315.00;;;21.61;94.93
8585;BME280;7180;52.742;11.420;2023-07-16T00:37:24;100334.72;;;21.52;96.25
8585;BME280;7180;52.742;11.420;2023-07-16T00:39:49;100348.41;;;21.41;97.22
8585;BME280;7180;52.742;11.420;2023-07-16T00:42:14;100357.13;;;21.35;98.47
8585;BME280;7180;52.742;11.420;2023-07-16T00:44:40;100368.47;;;21.29;99.14
8585;BME280;7180;52.742;11.420;2023-07-16T00:47:05;100367.94;;;21.26;99.66
8585;BME280;7180;52.742;11.420;2023-07-16T00:49:31;100369.44;;;21.20;100.00
8585;BME280;7180;52.742;11.420;2023-07-16T00:51:58;100371.94;;;21.14;100.00
8585;BME280;7180;52.742;11.420;2023-07-16T00:54:24;100389.28;;;21.10;100.00
8585;BME280;7180;52.742;11.420;2023-07-16T00:56:49;100384.28;;;21.07;100.00
8585;BME280;7180;52.742;11.420;2023-07-16T00:59:15;100408.63;;;21.04;100.00
8585;BME280;7180;52.742;11.420;2023-07-16T01:01:40;100406.81;;;21.04;100.00
8585;BME280;7180;52.742;11.420;2023-07-16T01:04:05;100426.66;;;21.02;100.00
8585;BME280;7180;52.742;11.420;2023-07-16T01:06:40;100436.69;;;21.00;100.00
8585;BME280;7180;52.742;11.420;2023-07-16T01:09:09;100433.78;;;20.93;100.00
8585;BME280;7180;52.742;11.420;2023-07-16T01:11:36;100443.97;;;20.90;100.00
8585;BME280;7180;52.742;11.420;2023-07-16T01:14:03;100469.81;;;20.81;100.00
8585;BME280;7180;52.742;11.420;2023-07-16T01:16:28;100482.78;;;20.76;100.00
8585;BME280;7180;52.742;11.420;2023-07-16T01:18:54;100492.94;;;20.73;100.00
8585;BME280;7180;52.742;11.420;2023-07-16T01:21:21;100491.44;;;20.70;100.00
8585;BME280;7180;52.742;11.420;2023-07-16T01:29:43;100507.88;;;20.57;100.00
8585;BME280;7180;52.742;11.420;2023-07-16T01:32:11;100487.28;;;20.50;100.00
8585;BME280;7180;52.742;11.420;2023-07-16T01:34:37;100478.25;;;20.51;100.00
8585;BME280;7180;52.742;11.420;2023-07-16T01:37:04;100472.56;;;20.46;100.00
8585;BME280;7180;52.742;11.420;2023-07-16T01:39:31;100493.16;;;20.53;100.00
8585;BME280;7180;52.742;11.420;2023-07-16T01:41:57;100481.25;;;20.48;100.00
8585;BME280;7180;52.742;11.420;2023-07-16T01:44:23;100487.88;;;20.44;100.00
8585;BME280;7180;52.742;11.420;2023-07-16T01:46:59;100491.09;;;20.47;100.00
8585;BME280;7180;52.742;11.420;2023-07-16T01:49:28;100490.28;;;20.47;100.00
8585;BME280;7180;52.742;11.420;2023-07-16T01:51:54;100466.22;;;20.47;100.00
8585;BME280;7180;52.742;11.420;2023-07-16T01:54:20;100458.91;;;20.49;100.00
8585;BME280;7180;52.742;11.420;2023-07-16T01:56:45;100437.66;;;20.47;100.00
8585;BME280;7180;52.742;11.420;2023-07-16T01:59:10;100438.69;;;20.46;100.00
8585;BME280;7180;52.742;11.420;2023-07-16T02:01:35;100440.66;;;20.44;100.00
8585;BME280;7180;52.742;11.420;2023-07-16T02:04:01;100449.28;;;20.38;100.00
8585;BME280;7180;52.742;11.420;2023-07-16T02:06:26;100452.97;;;20.37;100.00
8585;BME280;7180;52.742;11.420;2023-07-16T02:08:51;100435.41;;;20.35;100.00
8585;BME280;7180;52.742;11.420;2023-07-16T02:11:17;100449.09;;;20.32;100.00
8585;BME280;7180;52.742;11.420;2023-07-16T02:13:42;100451.75;;;20.32;100.00
8585;BME280;7180;52.742;11.420;2023-07-16T02:16:07;100453.28;;;20.34;100.00
8585;BME280;7180;52.742;11.420;2023-07-16T02:18:32;100442.53;;;20.26;100.00
8585;BME280;7180;52.742;11.420;2023-07-16T02:20:58;100447.00;;;20.26;100.00
8585;BME280;7180;52.742;11.420;2023-07-16T02:23:23;100451.53;;;20.25;100.00
8585;BME280;7180;52.742;11.420;2023-07-16T02:25:48;100461.13;;;20.18;100.00
8585;BME280;7180;52.742;11.420;2023-07-16T02:28:13;100454.97;;;20.18;100.00
8585;BME280;7180;52.742;11.420;2023-07-16T02:30:40;100457.31;;;20.21;100.00
8585;BME280;7180;52.742;11.420;2023-07-16T02:33:06;100462.81;;;20.19;100.00
8585;BME280;7180;52.742;11.420;2023-07-16T02:35:31;100469.00;;;20.20;100.00
8585;BME280;7180;52.742;11.420;2023-07-16T02:37:56;100454.97;;;20.18;100.00
8585;BME280;7180;52.742;11.420;2023-07-16T02:40:22;100413.53;;;20.14;100.00
8585;BME280;7180;52.742;11.420;2023-07-16T02:42:47;100371.56;;;20.24;100.00
8585;BME280;7180;52.742;11.420;2023-07-16T02:45:12;100347.13;;;20.11;100.00
8585;BME280;7180;52.742;11.420;2023-07-16T02:47:37;100347.38;;;20.00;100.00
8585;BME280;7180;52.742;11.420;2023-07-16T02:50:03;100373.38;;;19.98;100.00
8585;BME280;7180;52.742;11.420;2023-07-16T02:52:28;100423.31;;;20.05;100.00
8585;BME280;7180;52.742;11.420;2023-07-16T02:54:54;100442.34;;;20.10;100.00
8585;BME280;7180;52.742;11.420;2023-07-16T02:57:21;100428.84;;;20.12;100.00
8585;BME280;7180;52.742;11.420;2023-07-16T02:59:46;100435.88;;;20.13;100.00
8585;BME280;7180;52.742;11.420;2023-07-16T03:02:12;100447.94;;;20.17;100.00
8585;BME280;7180;52.742;11.420;2023-07-16T03:04:37;100458.03;;;20.23;100.00
8585;BME280;7180;52.742;11.420;2023-07-16T03:07:03;100471.53;;;20.21;100.00
8585;BME280;7180;52.742;11.420;2023-07-16T03:09:28;100463.25;;;20.15;100.00
8585;BME280;7180;52.742;11.420;2023-07-16T03:11:53;100473.25;;;20.13;100.00
8585;BME280;7180;52.742;11.420;2023-07-16T03:14:19;100459.31;;;20.19;100.00
8585;BME280;7180;52.742;11.420;2023-07-16T03:16:44;100462.59;;;20.13;100.00
8585;BME280;7180;52.742;11.420;2023-07-16T03:19:09;100461.81;;;20.03;100.00
8585;BME280;7180;52.742;11.420;2023-07-16T03:21:35;100431.31;;;20.05;100.00
8585;BME280;7180;52.742;11.420;2023-07-16T03:24:00;100439.16;;;20.07;100.00
8585;BME280;7180;52.742;11.420;2023-07-16T03:26:25;100442.97;;;20.04;100.00
8585;BME280;7180;52.742;11.420;2023-07-16T03:28:50;100462.34;;;20.06;100.00
8585;BME280;7180;52.742;11.420;2023-07-16T03:31:16;100471.50;;;20.04;100.00
8585;BME280;7180;52.742;11.420;2023-07-16T03:33:41;100465.16;;;20.05;100.00
8585;BME280;7180;52.742;11.420;2023-07-16T03:36:06;100467.13;;;20.03;100.00
8585;BME280;7180;52.742;11.420;2023-07-16T03:38:32;100478.97;;;20.00;100.00
8585;BME280;7180;52.742;11.420;2023-07-16T03:40:57;100484.31;;;20.00;100.00
8585;BME280;7180;52.742;11.420;2023-07-16T03:43:22;100478.13;;;20.00;100.00
8585;BME280;7180;52.742;11.420;2023-07-16T03:45:48;100489.78;;;19.99;100.00
8585;BME280;7180;52.742;11.420;2023-07-16T03:48:14;100488.13;;;19.98;100.00
8585;BME280;7180;52.742;11.420;2023-07-16T03:50:39;100470.03;;;19.92;100.00
8585;BME280;7180;52.742;11.420;2023-07-16T03:53:05;100472.00;;;19.90;100.00
8585;BME280;7180;52.742;11.420;2023-07-16T03:55:30;100475.38;;;19.92;100.00
8585;BME280;7180;52.742;11.420;2023-07-16T03:57:56;100464.69;;;19.92;100.00
8585;BME280;7180;52.742;11.420;2023-07-16T04:00:21;100461.66;;;19.87;100.00
8585;BME280;7180;52.742;11.420;2023-07-16T04:02:47;100465.31;;;19.86;100.00
8585;BME280;7180;52.742;11.420;2023-07-16T04:05:12;100465.59;;;19.83;100.00
8585;BME280;7180;52.742;11.420;2023-07-16T04:07:37;100473.78;;;19.81;100.00
8585;BME280;7180;52.742;11.420;2023-07-16T04:10:03;100484.22;;;19.92;100.00
8585;BME280;7180;52.742;11.420;2023-07-16T04:12:28;100482.09;;;19.96;100.00
8585;BME280;7180;52.742;11.420;2023-07-16T04:14:57;100487.00;;;20.00;100.00
8585;BME280;7180;52.742;11.420;2023-07-16T04:17:22;100494.06;;;20.09;100.00
8585;BME280;7180;52.742;11.420;2023-07-16T04:19:47;100498.84;;;20.06;100.00
8585;BME280;7180;52.742;11.420;2023-07-16T04:22:13;100496.06;;;20.07;100.00
8585;BME280;7180;52.742;11.420;2023-07-16T04:24:38;100500.94;;;20.12;100.00
8585;BME280;7180;52.742;11.420;2023-07-16T04:27:03;100499.94;;;20.13;100.00
8585;BME280;7180;52.742;11.420;2023-07-16T04:29:29;100508.94;;;20.12;100.00
8585;BME280;7180;52.742;11.420;2023-07-16T04:31:54;100522.59;;;20.09;100.00
8585;BME280;7180;52.742;11.420;2023-07-16T04:34:19;100533.28;;;20.09;100.00
8585;BME280;7180;52.742;11.420;2023-07-16T04:36:45;100532.00;;;20.13;100.00
8585;BME280;7180;52.742;11.420;2023-07-16T04:39:10;100528.72;;;20.19;100.00
8585;BME280;7180;52.742;11.420;2023-07-16T04:41:35;100542.84;;;20.29;100.00
8585;BME280;7180;52.742;11.420;2023-07-16T04:44:01;100530.56;;;20.36;100.00
8585;BME280;7180;52.742;11.420;2023-07-16T04:46:26;100543.00;;;20.45;100.00
8585;BME280;7180;52.742;11.420;2023-07-16T04:48:51;100535.72;;;20.55;100.00
8585;BME280;7180;52.742;11.420;2023-07-16T04:51:17;100526.66;;;20.48;100.00
8585;BME280;7180;52.742;11.420;2023-07-16T04:53:42;100537.78;;;20.61;100.00
8585;BME280;7180;52.742;11.420;2023-07-16T04:56:12;100538.03;;;20.50;100.00
8585;BME280;7180;52.742;11.420;2023-07-16T04:58:37;100530.63;;;20.44;100.00
8585;BME280;7180;52.742;11.420;2023-07-16T05:01:03;100532.97;;;20.64;100.00
8585;BME280;7180;52.742;11.420;2023-07-16T05:03:28;100526.59;;;20.83;100.00
8585;BME280;7180;52.742;11.420;2023-07-16T05:05:53;100520.22;;;21.02;100.00
8585;BME280;7180;52.742;11.420;2023-07-16T05:08:19;100517.59;;;21.43;100.00
8585;BME280;7180;52.742;11.420;2023-07-16T05:10:45;100513.47;;;21.49;100.00
8585;BME280;7180;52.742;11.420;2023-07-16T05:13:10;100488.19;;;21.43;100.00
8585;BME280;7180;52.742;11.420;2023-07-16T05:15:37;100500.88;;;21.41;100.00
8585;BME280;7180;52.742;11.420;2023-07-16T05:18:02;100486.31;;;21.36;100.00
8585;BME280;7180;52.742;11.420;2023-07-16T05:20:27;100491.16;;;21.32;100.00
8585;BME280;7180;52.742;11.420;2023-07-16T05:22:53;100490.16;;;21.33;100.00
8585;BME280;7180;52.742;11.420;2023-07-16T05:25:18;100530.44;;;22.39;100.00
8585;BME280;7180;52.742;11.420;2023-07-16T05:27:43;100482.00;;;23.52;100.00
8585;BME280;7180;52.742;11.420;2023-07-16T05:30:09;100418.44;;;23.98;99.76
8585;BME280;7180;52.742;11.420;2023-07-16T05:32:35;100348.50;;;24.65;93.56
8585;BME280;7180;52.742;11.420;2023-07-16T05:35:01;100376.84;;;24.39;92.78
8585;BME280;7180;52.742;11.420;2023-07-16T05:37:26;100374.44;;;24.07;91.85
8585;BME280;7180;52.742;11.420;2023-07-16T05:39:51;100386.03;;;22.85;93.38
8585;BME280;7180;52.742;11.420;2023-07-16T05:42:17;100475.66;;;21.86;97.93
8585;BME280;7180;52.742;11.420;2023-07-16T05:44:42;100515.78;;;21.86;100.00
8585;BME280;7180;52.742;11.420;2023-07-16T05:47:09;100540.56;;;21.88;100.00
8585;BME280;7180;52.742;11.420;2023-07-16T05:49:35;100517.53;;;22.11;100.00
8585;BME280;7180;52.742;11.420;2023-07-16T05:52:00;100520.69;;;21.64;100.00
8585;BME280;7180;52.742;11.420;2023-07-16T05:54:25;100552.59;;;21.84;100.00
8585;BME280;7180;52.742;11.420;2023-07-16T05:56:51;100576.22;;;21.96;100.00
8585;BME280;7180;52.742;11.420;2023-07-16T05:59:17;100563.75;;;21.79;100.00
8585;BME280;7180;52.742;11.420;2023-07-16T06:01:42;100555.94;;;22.84;100.00
8585;BME280;7180;52.742;11.420;2023-07-16T06:04:08;100486.97;;;23.16;98.93
8585;BME280;7180;52.742;11.420;2023-07-16T06:06:33;100446.66;;;23.40;95.64
8585;BME280;7180;52.742;11.420;2023-07-16T06:08:58;100465.84;;;23.21;96.44
8585;BME280;7180;52.742;11.420;2023-07-16T06:11:24;100461.03;;;23.09;95.74
8585;BME280;7180;52.742;11.420;2023-07-16T06:13:49;100488.00;;;23.07;96.37
8585;BME280;7180;52.742;11.420;2023-07-16T06:16:14;100474.19;;;23.73;95.08
8585;BME280;7180;52.742;11.420;2023-07-16T06:18:40;100470.22;;;23.92;94.51
8585;BME280;7180;52.742;11.420;2023-07-16T06:21:05;100359.66;;;23.88;90.05
8585;BME280;7180;52.742;11.420;2023-07-16T06:23:31;100390.25;;;23.79;89.17
8585;BME280;7180;52.742;11.420;2023-07-16T06:25:56;100279.97;;;25.47;84.44
8585;BME280;7180;52.742;11.420;2023-07-16T06:28:23;100268.09;;;26.80;80.70
8585;BME280;7180;52.742;11.420;2023-07-16T06:30:49;100133.78;;;28.19;75.22
8585;BME280;7180;52.742;11.420;2023-07-16T06:33:15;100077.06;;;28.06;72.77
8585;BME280;7180;52.742;11.420;2023-07-16T06:35:44;100014.44;;;28.53;69.80
8585;BME280;7180;52.742;11.420;2023-07-16T06:38:09;99864.63;;;29.15;65.49
8585;BME280;7180;52.742;11.420;2023-07-16T06:40:34;99880.22;;;29.49;63.89
8585;BME280;7180;52.742;11.420;2023-07-16T06:43:00;99752.22;;;30.30;60.06
8585;BME280;7180;52.742;11.420;2023-07-16T06:45:25;99748.34;;;29.61;60.88
8585;BME280;7180;52.742;11.420;2023-07-16T06:47:50;99854.59;;;29.63;62.46
8585;BME280;7180;52.742;11.420;2023-07-16T06:50:16;99838.56;;;28.35;63.60
8585;BME280;7180;52.742;11.420;2023-07-16T06:52:41;99850.88;;;29.46;62.12
8585;BME280;7180;52.742;11.420;2023-07-16T06:55:07;99900.44;;;28.50;63.66
8585;BME280;7180;52.742;11.420;2023-07-16T06:57:32;99862.03;;;29.02;61.99
8585;BME280;7180;52.742;11.420;2023-07-16T06:59:57;100065.00;;;29.33;64.90
8585;BME280;7180;52.742;11.420;2023-07-16T07:02:23;99878.75;;;30.36;60.82
8585;BME280;7180;52.742;11.420;2023-07-16T07:04:49;99950.38;;;27.08;65.81
8585;BME280;7180;52.742;11.420;2023-07-16T07:07:15;99990.47;;;26.98;65.72
8585;BME280;7180;52.742;11.420;2023-07-16T07:09:40;99923.50;;;27.52;64.35
8585;BME280;7180;52.742;11.420;2023-07-16T07:12:06;100131.91;;;26.63;68.46
8585;BME280;7180;52.742;11.420;2023-07-16T07:14:33;100213.06;;;26.27;69.76
8585;BME280;7180;52.742;11.420;2023-07-16T07:16:58;100310.91;;;25.01;73.00
8585;BME280;7180;52.742;11.420;2023-07-16T07:19:23;100291.41;;;26.94;70.03
8585;BME280;7180;52.742;11.420;2023-07-16T07:21:49;100226.59;;;28.51;67.13
8585;BME280;7180;52.742;11.420;2023-07-16T07:24:14;99989.13;;;28.04;64.11
8585;BME280;7180;52.742;11.420;2023-07-16T07:26:39;100085.47;;;28.74;64.42
8585;BME280;7180;52.742;11.420;2023-07-16T07:29:05;100073.72;;;28.86;63.13
8585;BME280;7180;52.742;11.420;2023-07-16T07:31:30;99873.56;;;28.55;61.19
8585;BME280;7180;52.742;11.420;2023-07-16T07:33:55;99936.03;;;27.40;63.17
8585;BME280;7180;52.742;11.420;2023-07-16T07:36:22;100085.09;;;26.10;67.26
8585;BME280;7180;52.742;11.420;2023-07-16T07:38:47;100098.50;;;27.95;64.72
8585;BME280;7180;52.742;11.420;2023-07-16T07:41:13;99941.72;;;28.08;62.48
8585;BME280;7180;52.742;11.420;2023-07-16T07:43:38;100042.59;;;28.02;63.43
8585;BME280;7180;52.742;11.420;2023-07-16T07:46:03;99932.75;;;28.14;62.05
8585;BME280;7180;52.742;11.420;2023-07-16T07:48:29;99965.41;;;27.61;62.64
8585;BME280;7180;52.742;11.420;2023-07-16T07:50:54;99845.69;;;26.66;62.17
8585;BME280;7180;52.742;11.420;2023-07-16T07:53:19;100009.16;;;26.87;63.50
8585;BME280;7180;52.742;11.420;2023-07-16T07:55:45;99989.19;;;26.42;63.75
8585;BME280;7180;52.742;11.420;2023-07-16T07:58:11;99975.28;;;26.25;63.83
8585;BME280;7180;52.742;11.420;2023-07-16T08:00:37;99999.19;;;25.40;65.09
8585;BME280;7180;52.742;11.420;2023-07-16T08:03:02;100066.38;;;25.27;66.23
8585;BME280;7180;52.742;11.420;2023-07-16T08:05:27;99994.84;;;25.39;64.77
8585;BME280;7180;52.742;11.420;2023-07-16T08:07:53;100069.16;;;25.40;65.65
8585;BME280;7180;52.742;11.420;2023-07-16T08:10:19;99998.28;;;25.33;64.71
8585;BME280;7180;52.742;11.420;2023-07-16T08:12:44;100122.97;;;25.40;66.37
8585;BME280;7180;52.742;11.420;2023-07-16T08:15:10;100067.38;;;25.26;65.88
8585;BME280;7180;52.742;11.420;2023-07-16T08:17:40;100089.03;;;25.39;65.31
8585;BME280;7180;52.742;11.420;2023-07-16T08:20:06;100048.78;;;25.31;65.51
8585;BME280;7180;52.742;11.420;2023-07-16T08:22:32;100002.44;;;25.36;64.73
8585;BME280;7180;52.742;11.420;2023-07-16T08:24:57;100087.34;;;25.38;65.76
8585;BME280;7180;52.742;11.420;2023-07-16T08:27:22;100124.72;;;25.27;66.34
8585;BME280;7180;52.742;11.420;2023-07-16T08:29:48;100071.44;;;25.16;65.63
8585;BME280;7180;52.742;11.420;2023-07-16T08:32:13;100000.09;;;24.92;64.35
8585;BME280;7180;52.742;11.420;2023-07-16T08:34:38;99992.94;;;24.78;65.00
8585;BME280;7180;52.742;11.420;2023-07-16T08:37:04;99982.31;;;24.91;64.10
8585;BME280;7180;52.742;11.420;2023-07-16T08:39:31;100001.28;;;24.90;64.38
8585;BME280;7180;52.742;11.420;2023-07-16T08:41:56;99875.47;;;24.79;62.42
8585;BME280;7180;52.742;11.420;2023-07-16T08:44:22;99933.94;;;24.70;63.55
8585;BME280;7180;52.742;11.420;2023-07-16T08:46:48;99862.22;;;24.77;62.23
8585;BME280;7180;52.742;11.420;2023-07-16T08:49:14;99900.34;;;24.87;62.46
8585;BME280;7180;52.742;11.420;2023-07-16T08:51:42;99762.16;;;24.88;60.06
8585;BME280;7180;52.742;11.420;2023-07-16T08:54:08;99688.94;;;24.86;59.22
8585;BME280;7180;52.742;11.420;2023-07-16T08:56:34;99697.25;;;24.98;58.59
8585;BME280;7180;52.742;11.420;2023-07-16T08:58:59;99766.56;;;25.02;59.56
8585;BME280;7180;52.742;11.420;2023-07-16T09:01:26;99782.94;;;25.07;60.04
8585;BME280;7180;52.742;11.420;2023-07-16T09:03:52;99773.88;;;25.21;59.71
8585;BME280;7180;52.742;11.420;2023-07-16T09:06:18;99832.66;;;25.24;59.93
8585;BME280;7180;52.742;11.420;2023-07-16T09:08:43;99735.38;;;25.14;59.16
8585;BME280;7180;52.742;11.420;2023-07-16T09:11:12;99798.50;;;25.18;59.66
8585;BME280;7180;52.742;11.420;2023-07-16T09:13:46;99745.09;;;25.09;59.18
8585;BME280;7180;52.742;11.420;2023-07-16T09:16:11;99762.31;;;25.27;58.96
8585;BME280;7180;52.742;11.420;2023-07-16T09:18:37;99735.00;;;25.37;58.79
8585;BME280;7180;52.742;11.420;2023-07-16T09:21:04;99770.78;;;25.24;59.06
8585;BME280;7180;52.742;11.420;2023-07-16T09:23:33;99730.50;;;25.50;58.24
8585;BME280;7180;52.742;11.420;2023-07-16T09:25:58;99805.50;;;25.80;58.62
8585;BME280;7180;52.742;11.420;2023-07-16T09:28:24;99638.13;;;25.83;56.42
8585;BME280;7180;52.742;11.420;2023-07-16T09:30:50;99746.66;;;25.77;57.53
8585;BME280;7180;52.742;11.420;2023-07-16T09:33:21;99719.91;;;25.82;57.25
8585;BME280;7180;52.742;11.420;2023-07-16T09:35:50;99640.59;;;25.71;55.95
8585;BME280;7180;52.742;11.420;2023-07-16T09:38:17;99608.53;;;25.56;55.60
8585;BME280;7180;52.742;11.420;2023-07-16T09:40:43;99580.59;;;25.44;55.87
8585;BME280;7180;52.742;11.420;2023-07-16T09:43:09;99606.69;;;25.44;55.59
8585;BME280;7180;52.742;11.420;2023-07-16T09:45:35;99472.56;;;25.41;53.75
8585;BME280;7180;52.742;11.420;2023-07-16T09:48:02;99401.72;;;25.53;52.69
8585;BME280;7180;52.742;11.420;2023-07-16T09:50:29;99511.41;;;25.64;53.16
8585;BME280;7180;52.742;11.420;2023-07-16T09:52:56;99551.97;;;25.70;53.72
8585;BME280;7180;52.742;11.420;2023-07-16T09:55:23;99595.88;;;25.83;53.99
8585;BME280;7180;52.742;11.420;2023-07-16T09:57:49;99439.53;;;25.72;52.66
8585;BME280;7180;52.742;11.420;2023-07-16T10:00:17;99490.75;;;26.03;52.58
8585;BME280;7180;52.742;11.420;2023-07-16T10:02:44;99442.16;;;25.85;51.75
8585;BME280;7180;52.742;11.420;2023-07-16T10:05:14;99375.34;;;26.00;50.98
8585;BME280;7180;52.742;11.420;2023-07-16T10:07:40;99294.59;;;25.93;49.67
8585;BME280;7180;52.742;11.420;2023-07-16T10:10:10;99265.91;;;25.81;49.56
8585;BME280;7180;52.742;11.420;2023-07-16T10:12:38;99284.69;;;25.62;49.83
8585;BME280;7180;52.742;11.420;2023-07-16T10:15:04;99238.38;;;25.54;48.93
8585;BME280;7180;52.742;11.420;2023-07-16T10:17:32;99382.97;;;25.72;50.40
8585;BME280;7180;52.742;11.420;2023-07-16T10:19:59;99369.97;;;25.69;50.08
8585;BME280;7180;52.742;11.420;2023-07-16T10:22:37;99312.34;;;25.45;49.97
8585;BME280;7180;52.742;11.420;2023-07-16T10:27:44;99354.75;;;25.81;49.72
8585;BME280;7180;52.742;11.420;2023-07-16T10:30:09;99446.06;;;25.89;50.80
8585;BME280;7180;52.742;11.420;2023-07-16T10:32:35;99409.41;;;25.88;50.49
8585;BME280;7180;52.742;11.420;2023-07-16T10:35:01;99376.31;;;25.81;49.95
8585;BME280;7180;52.742;11.420;2023-07-16T10:37:27;99490.13;;;26.01;50.60
8585;BME280;7180;52.742;11.420;2023-07-16T10:39:54;99447.81;;;26.14;49.78
8585;BME280;7180;52.742;11.420;2023-07-16T10:42:22;99449.47;;;26.15;49.90
8585;BME280;7180;52.742;11.420;2023-07-16T10:44:51;99465.66;;;26.09;50.27
8585;BME280;7180;52.742;11.420;2023-07-16T10:47:40;99543.50;;;26.30;50.80
8585;BME280;7180;52.742;11.420;2023-07-16T10:50:09;99532.78;;;26.17;51.35
8585;BME280;7180;52.742;11.420;2023-07-16T10:52:35;99424.56;;;26.20;49.56
8585;BME280;7180;52.742;11.420;2023-07-16T10:55:01;99363.91;;;25.80;49.15
8585;BME280;7180;52.742;11.420;2023-07-16T10:57:27;99434.88;;;25.92;49.89
8585;BME280;7180;52.742;11.420;2023-07-16T10:59:54;99387.13;;;26.12;48.66
8585;BME280;7180;52.742;11.420;2023-07-16T11:02:22;99466.66;;;26.21;49.30
8585;BME280;7180;52.742;11.420;2023-07-16T11:04:49;99467.66;;;26.26;49.41
8585;BME280;7180;52.742;11.420;2023-07-16T11:07:15;99437.41;;;26.24;48.99
8585;BME280;7180;52.742;11.420;2023-07-16T11:09:45;99497.41;;;26.38;49.67
8585;BME280;7180;52.742;11.420;2023-07-16T11:12:13;99441.41;;;26.40;48.96
8585;BME280;7180;52.742;11.420;2023-07-16T11:14:42;99424.94;;;26.23;48.79
8585;BME280;7180;52.742;11.420;2023-07-16T11:17:09;99429.09;;;26.26;48.62
8585;BME280;7180;52.742;11.420;2023-07-16T11:19:36;99466.22;;;26.48;48.76
8585;BME280;7180;52.742;11.420;2023-07-16T11:22:02;99426.03;;;26.47;48.51
8585;BME280;7180;52.742;11.420;2023-07-16T11:24:28;99447.56;;;26.78;48.16
8585;BME280;7180;52.742;11.420;2023-07-16T11:26:55;99452.09;;;26.84;48.51
8585;BME280;7180;52.742;11.420;2023-07-16T11:29:22;99378.66;;;26.82;47.48
8585;BME280;7180;52.742;11.420;2023-07-16T11:31:52;99378.81;;;26.38;47.86
8585;BME280;7180;52.742;11.420;2023-07-16T11:34:21;99376.56;;;26.59;47.48
8585;BME280;7180;52.742;11.420;2023-07-16T11:36:47;99394.88;;;26.51;47.67
8585;BME280;7180;52.742;11.420;2023-07-16T11:39:12;99419.53;;;26.30;48.67
8585;BME280;7180;52.742;11.420;2023-07-16T11:41:38;99534.75;;;26.34;50.13
8585;BME280;7180;52.742;11.420;2023-07-16T11:44:03;99437.16;;;26.57;48.32
8585;BME280;7180;52.742;11.420;2023-07-16T11:46:33;99378.44;;;26.59;47.20
8585;BME280;7180;52.742;11.420;2023-07-16T11:49:02;99342.69;;;26.45;47.03
8585;BME280;7180;52.742;11.420;2023-07-16T11:51:27;99423.00;;;26.68;47.64
8585;BME280;7180;52.742;11.420;2023-07-16T11:53:53;99441.66;;;26.63;48.25
8585;BME280;7180;52.742;11.420;2023-07-16T11:56:19;99224.88;;;26.71;45.67
8585;BME280;7180;52.742;11.420;2023-07-16T11:58:44;99302.06;;;26.65;46.13
8585;BME280;7180;52.742;11.420;2023-07-16T12:01:09;99338.50;;;26.74;46.43
8585;BME280;7180;52.742;11.420;2023-07-16T12:03:35;99316.13;;;26.74;46.43
8585;BME280;7180;52.742;11.420;2023-07-16T12:06:00;99347.34;;;26.56;47.15
8585;BME280;7180;52.742;11.420;2023-07-16T12:08:25;99335.91;;;26.86;46.07
8585;BME280;7180;52.742;11.420;2023-07-16T12:10:51;99306.88;;;26.99;45.74
8585;BME280;7180;52.742;11.420;2023-07-16T12:13:16;99363.25;;;27.25;46.02
8585;BME280;7180;52.742;11.420;2023-07-16T12:15:41;99313.09;;;27.18;45.38
8585;BME280;7180;52.742;11.420;2023-07-16T12:18:07;99405.22;;;27.03;46.70
8585;BME280;7180;52.742;11.420;2023-07-16T12:20:34;99381.91;;;26.91;46.88
8585;BME280;7180;52.742;11.420;2023-07-16T12:22:59;99368.78;;;26.94;46.48
8585;BME280;7180;52.742;11.420;2023-07-16T12:25:25;99263.34;;;26.96;45.50
8585;BME280;7180;52.742;11.420;2023-07-16T12:27:50;99203.75;;;27.15;44.33
8585;BME280;7180;52.742;11.420;2023-07-16T12:30:15;99270.06;;;27.23;44.45
8585;BME280;7180;52.742;11.420;2023-07-16T12:32:41;99236.34;;;27.32;44.07
8585;BME280;7180;52.742;11.420;2023-07-16T12:35:06;99265.72;;;27.40;44.36
8585;BME280;7180;52.742;11.420;2023-07-16T12:37:31;99270.88;;;27.23;44.78
8585;BME280;7180;52.742;11.420;2023-07-16T12:39:57;99206.50;;;27.27;44.12
8585;BME280;7180;52.742;11.420;2023-07-16T12:42:22;99304.53;;;27.39;44.93
8585;BME280;7180;52.742;11.420;2023-07-16T12:44:47;99251.03;;;27.36;44.66
8585;BME280;7180;52.742;11.420;2023-07-16T12:47:14;99295.28;;;27.35;44.63
8585;BME280;7180;52.742;11.420;2023-07-16T12:49:40;99269.81;;;27.24;44.72
8585;BME280;7180;52.742;11.420;2023-07-16T12:52:05;99325.69;;;27.24;44.99
8585;BME280;7180;52.742;11.420;2023-07-16T12:54:31;99277.91;;;27.24;44.83
8585;BME280;7180;52.742;11.420;2023-07-16T12:56:56;99241.50;;;27.15;44.07
8585;BME280;7180;52.742;11.420;2023-07-16T12:59:22;99292.03;;;27.08;44.99
8585;BME280;7180;52.742;11.420;2023-07-16T13:01:49;99234.66;;;27.01;44.30